METAR Data
IDs: Format: Raw Decoded Include TAF

Data at: 0838 UTC 03 Aug 2021

Region: TOP
KATL 030752Z 08003KT 8SM -RA FEW047 SCT060 OVC075 23/20 A2998 RMK AO2 RAB42 SLP140 P0000 T02330200

KBOS 030754Z 00000KT 10SM FEW060 FEW250 19/13 A3009 RMK AO2 SLP187 T01940128

KBWI 030754Z 00000KT 10SM BKN250 17/15 A3008 RMK AO2 SLP185 T01670150

KCLE 030751Z 17003KT 10SM CLR 13/10 A3010 RMK AO2 SLP204 T01280100

KCLT 030752Z 08007KT 9SM CLR 23/18 A3001 RMK AO2 SLP151 T02330178

KCVG 030752Z 02003KT 10SM CLR 18/13 A3007 RMK AO2 SLP176 T01780128

KDCA 030752Z 34005KT 10SM BKN250 20/16 A3009 RMK AO2 SLP189 T02000161

KDEN 030753Z 25008KT 10SM SCT220 21/12 A3018 RMK AO2 SLP129 T02060117

KDFW 030753Z 08004KT 10SM BKN080 BKN250 24/22 A2999 RMK AO2 SLP147 T02440222

KDTW 030753Z 00000KT 9SM FEW075 BKN200 16/13 A3011 RMK AO2 SLP193 T01610128 $

KEWR 030751Z 03003KT 10SM FEW070 SCT250 19/11 A3010 RMK AO2 SLP192 T01890106 $

KFLL 030753Z 19004KT 10SM SCT035 BKN095 BKN120 BKN250 28/25 A2999

KIAD 030752Z 30003KT 10SM BKN250 16/14 A3010 RMK AO2 SLP188 T01610139

KIAH 030753Z 02003KT 10SM FEW035 FEW095 FEW250 26/24 A2994 RMK AO2 SLP139 T02560239

KJFK 030751Z 01004KT 10SM FEW070 19/12 A3011 RMK AO2 SLP194 T01890122

KLAS 030756Z 29005KT 10SM CLR 32/09 A2996 RMK AO2 SLP114 T03220094 404170283

KLAX 030753Z 25004KT 10SM CLR 18/14 A2996 RMK AO2 SLP143 T01830144 402560172 $

KLGA 030751Z 00000KT 10SM FEW070 21/12 A3009 RMK AO2 SLP190 T02110117

KMCO 030753Z 19005KT 10SM FEW020 SCT160 OVC230 25/23 A2997 RMK AO2 SLP148 T02500228

KMDW 030753Z 19004KT 10SM SCT080 SCT100 19/12 A3011 RMK AO2 SLP187 T01890122

KMEM 030754Z 07007KT 10SM SCT250 23/16 A3002 RMK AO2 SLP160 T02280161

KMIA 030753Z 18003KT 10SM FEW025 SCT130 BKN200 OVC250 28/25 A3000 RMK AO2 SLP159 T02780250 $

KMSP 030753Z 25004KT 8SM CLR 19/13 A3010 RMK AO2 SLP188 T01940128

KORD 030751Z 00000KT 10SM FEW095 17/13 A3010 RMK AO2 SLP189 T01720128

KPDX 030753Z 02004KT 10SM CLR 22/16 A3004 RMK AO2 RAE41 SLP172 P0000 T02220156 403280161

KPHL 030754Z 36005KT 10SM BKN250 OVC300 19/13 A3010 RMK AO2 SLP192 T01890133

KPHX 030751Z 15008KT 10SM SCT130 36/16 A2986 RMK AO2 SLP089 T03560161

KPIT 030751Z 00000KT 10SM FEW070 16/11 A3012 RMK AO2 SLP201 T01560106

KSAN 030751Z 00000KT 10SM CLR 21/16 A2998 RMK AO2 SLP152 T02110161 402720211

KSEA 030753Z 35004KT 10SM FEW250 19/11 A3008 RMK AO2 SLP189 T01940106 403060139

KSFO 030805Z 29014KT 10SM FEW002 BKN005 13/12 A3005 RMK AO2 T01280117 $

KSLC 030754Z 19003KT 10SM FEW150 SCT200 20/16 A3023 RMK AO2 SLP193 T02000156

KSTL 030751Z 00000KT 10SM BKN090 21/16 A3009 RMK AO2 SLP180 T02060156

KTPA 030753Z 20011G17KT 10SM SCT025 BKN050 29/24 A2996 RMK AO2 SLP143 T02890244